createdAt,value
2018-07-17T00:00:24.705Z,4.83
2018-07-17T00:02:52.086Z,5.27
2018-07-17T00:05:19.449Z,5.30
2018-07-17T00:07:46.730Z,5.93
2018-07-17T00:10:14.082Z,6.70
2018-07-17T00:12:41.412Z,8.53
2018-07-17T00:15:08.611Z,8.53
2018-07-17T00:17:36.303Z,8.97
2018-07-17T00:20:05.040Z,11.60
2018-07-17T00:22:32.649Z,12.87
2018-07-17T00:25:00.118Z,9.83
2018-07-17T00:27:27.493Z,10.87
2018-07-17T00:29:54.886Z,11.23
2018-07-17T00:32:22.171Z,10.60
2018-07-17T00:34:49.512Z,9.57
2018-07-17T00:37:16.838Z,9.00
2018-07-17T00:39:44.140Z,8.10
2018-07-17T00:42:11.419Z,8.90
2018-07-17T00:44:38.672Z,8.50
2018-07-17T00:47:06.054Z,9.10
2018-07-17T00:49:33.374Z,10.43
2018-07-17T00:52:00.849Z,10.83
2018-07-17T00:54:28.140Z,11.13
2018-07-17T00:56:55.515Z,12.10
2018-07-17T00:59:22.845Z,12.43
2018-07-17T01:01:55.749Z,13.07
2018-07-17T01:04:28.691Z,16.03
2018-07-17T01:07:01.714Z,16.63
2018-07-17T01:09:34.630Z,17.93
2018-07-17T01:12:08.413Z,18.57
2018-07-17T01:14:47.162Z,17.70
2018-07-17T01:17:15.196Z,17.27
2018-07-17T01:19:42.723Z,18.73
2018-07-17T01:22:10.007Z,17.13
2018-07-17T01:24:37.339Z,16.53
2018-07-17T01:27:04.695Z,16.23
2018-07-17T01:29:32.038Z,17.10
2018-07-17T01:31:59.345Z,16.60
2018-07-17T01:34:26.740Z,15.83
2018-07-17T01:36:54.189Z,16.50
2018-07-17T01:39:21.611Z,16.10
2018-07-17T01:41:48.849Z,16.00
2018-07-17T01:44:16.953Z,15.70
2018-07-17T01:46:45.341Z,15.33
2018-07-17T01:49:13.025Z,14.87
2018-07-17T01:51:40.422Z,13.87
2018-07-17T01:54:07.753Z,14.87
2018-07-17T01:56:35.169Z,14.73
2018-07-17T01:59:02.567Z,12.80
2018-07-17T02:01:29.898Z,12.90
2018-07-17T02:03:57.165Z,10.73
2018-07-17T02:06:24.531Z,10.80
2018-07-17T02:08:51.842Z,9.53
2018-07-17T02:11:19.157Z,9.67
2018-07-17T02:13:46.542Z,8.03
2018-07-17T02:16:13.911Z,7.30
2018-07-17T02:18:41.305Z,6.13
2018-07-17T02:21:08.785Z,6.20
2018-07-17T02:23:36.048Z,5.23
2018-07-17T02:26:03.396Z,5.83
2018-07-17T02:28:30.787Z,5.70
2018-07-17T02:30:58.061Z,9.13
2018-07-17T02:33:25.362Z,5.20
2018-07-17T02:35:53.224Z,5.07
2018-07-17T02:38:20.501Z,4.70
2018-07-17T02:40:47.775Z,5.83
2018-07-17T02:43:15.082Z,6.03
2018-07-17T02:45:42.474Z,5.03
2018-07-17T02:48:09.735Z,5.17
2018-07-17T02:50:37.100Z,4.77
2018-07-17T02:53:04.397Z,6.27
2018-07-17T02:55:32.155Z,6.37
2018-07-17T02:57:59.476Z,4.93
2018-07-17T03:00:26.784Z,5.77
2018-07-17T03:02:54.418Z,5.17
2018-07-17T03:05:21.729Z,4.43
2018-07-17T03:07:49.042Z,6.00
2018-07-17T03:10:16.456Z,4.70
2018-07-17T03:12:43.687Z,6.67
2018-07-17T03:15:10.955Z,5.90
2018-07-17T03:17:38.562Z,5.10
2018-07-17T03:20:05.960Z,4.83
2018-07-17T03:22:33.329Z,6.73
2018-07-17T03:25:00.684Z,6.17
2018-07-17T03:27:28.236Z,7.20
2018-07-17T03:29:55.558Z,7.93
2018-07-17T03:32:22.866Z,6.00
2018-07-17T03:34:50.223Z,5.37
2018-07-17T03:37:17.543Z,5.50
2018-07-17T03:39:44.919Z,5.20
2018-07-17T03:42:12.199Z,6.17
2018-07-17T03:44:39.546Z,6.60
2018-07-17T03:47:06.843Z,6.77
2018-07-17T03:49:34.138Z,4.90
2018-07-17T03:52:01.422Z,5.57
2018-07-17T03:54:28.752Z,6.97
2018-07-17T03:56:56.598Z,5.73
2018-07-17T03:59:23.997Z,5.17
2018-07-17T04:01:51.611Z,5.53
2018-07-17T04:04:19.093Z,6.30
2018-07-17T04:06:46.381Z,4.60
2018-07-17T04:09:13.748Z,5.87
2018-07-17T04:11:40.958Z,7.20
2018-07-17T04:14:08.205Z,5.10
2018-07-17T04:16:40.334Z,5.27
2018-07-17T04:19:08.031Z,6.43
2018-07-17T04:21:35.768Z,5.20
2018-07-17T04:24:03.430Z,4.97
2018-07-17T04:26:30.699Z,7.33
2018-07-17T04:28:58.652Z,5.10
2018-07-17T04:31:25.954Z,10.07
2018-07-17T04:33:53.355Z,7.50
2018-07-17T04:36:20.650Z,5.50
2018-07-17T04:38:47.986Z,5.83
2018-07-17T04:41:15.319Z,7.00
2018-07-17T04:43:42.645Z,6.23
2018-07-17T04:46:09.920Z,6.40
2018-07-17T04:48:37.376Z,5.93
2018-07-17T04:51:04.706Z,5.57
2018-07-17T04:53:31.969Z,6.23
2018-07-17T04:55:59.297Z,5.67
2018-07-17T04:58:26.620Z,8.73
2018-07-17T05:00:53.937Z,7.73
2018-07-17T05:03:21.242Z,9.27
2018-07-17T05:05:48.670Z,17.50
2018-07-17T05:08:16.111Z,17.20
2018-07-17T05:10:48.658Z,7.73
2018-07-17T05:13:16.057Z,11.47
2018-07-17T05:15:43.399Z,12.40
2018-07-17T05:18:10.979Z,9.80
2018-07-17T05:20:38.324Z,12.03
2018-07-17T05:23:05.610Z,11.83
2018-07-17T05:25:32.856Z,13.33
2018-07-17T05:28:00.123Z,11.70
2018-07-17T05:30:27.465Z,13.53
2018-07-17T05:32:54.746Z,14.50
2018-07-17T05:35:22.702Z,19.23
2018-07-17T05:37:50.832Z,15.67
2018-07-17T05:40:18.258Z,17.93
2018-07-17T05:42:45.640Z,17.57
2018-07-17T05:45:12.989Z,17.47
2018-07-17T05:47:40.649Z,15.17
2018-07-17T05:50:08.643Z,16.67
2018-07-17T05:52:35.962Z,14.03
2018-07-17T05:55:03.452Z,19.57
2018-07-17T05:57:31.389Z,15.13
2018-07-17T05:59:58.914Z,19.60
2018-07-17T06:02:26.596Z,20.57
2018-07-17T11:16:17.202Z,5.93
2018-07-17T11:18:45.551Z,6.50
2018-07-17T11:21:12.872Z,6.10
2018-07-17T11:23:40.450Z,5.20
2018-07-17T11:26:07.999Z,7.33
2018-07-17T11:28:35.596Z,7.80
2018-07-17T11:31:03.030Z,6.57
2018-07-17T11:33:30.450Z,4.87
2018-07-17T11:35:57.813Z,7.67
2018-07-17T11:38:25.092Z,8.30
2018-07-17T11:40:52.578Z,7.37
2018-07-17T11:43:20.563Z,6.43
2018-07-17T11:45:48.062Z,7.50
2018-07-17T11:48:15.344Z,6.40
2018-07-17T11:50:42.639Z,5.43
2018-07-17T11:53:10.413Z,5.87
2018-07-17T11:55:37.725Z,7.43
2018-07-17T11:58:05.375Z,3.30
2018-07-17T12:00:32.683Z,4.63
2018-07-17T12:03:00.261Z,3.87
2018-07-17T12:05:27.685Z,4.17
2018-07-17T12:07:55.309Z,4.90
2018-07-17T12:10:22.658Z,4.77
2018-07-17T12:12:50.072Z,3.93
2018-07-17T12:15:17.297Z,4.33
2018-07-17T12:17:44.630Z,3.80
2018-07-17T12:20:12.527Z,4.50
2018-07-17T12:22:39.985Z,5.00
2018-07-17T12:25:07.337Z,4.33
2018-07-17T12:27:34.641Z,5.50
2018-07-17T12:30:02.210Z,5.63
2018-07-17T12:32:30.274Z,4.83
2018-07-17T12:34:57.966Z,5.07
2018-07-17T12:37:25.234Z,4.83
2018-07-17T12:39:52.608Z,3.27
2018-07-17T12:42:19.977Z,4.23
2018-07-17T12:44:48.236Z,4.93
2018-07-17T12:47:15.701Z,3.03
2018-07-17T12:49:43.041Z,6.47
2018-07-17T12:52:11.225Z,4.60
2018-07-17T12:54:38.608Z,5.47
2018-07-17T12:57:06.254Z,4.23
2018-07-17T12:59:33.591Z,3.43
2018-07-17T13:02:01.026Z,4.90
2018-07-17T13:04:28.456Z,3.17
2018-07-17T13:06:55.754Z,4.47
2018-07-17T13:09:23.118Z,3.43
2018-07-17T13:11:50.438Z,5.13
2018-07-17T13:14:17.885Z,5.73
2018-07-17T13:16:45.393Z,5.00
2018-07-17T13:19:13.168Z,5.30
2018-07-17T13:21:41.217Z,3.60
2018-07-17T13:24:09.099Z,5.43
2018-07-17T13:26:37.076Z,2.90
2018-07-17T13:29:04.527Z,4.40
2018-07-17T13:31:31.947Z,6.77
2018-07-17T13:33:59.572Z,5.03
2018-07-17T13:36:26.918Z,3.80
2018-07-17T13:38:55.064Z,3.43
2018-07-17T13:41:22.402Z,9.60
2018-07-17T13:43:50.409Z,5.33
2018-07-17T13:46:17.696Z,4.57
2018-07-17T13:48:45.085Z,3.73
2018-07-17T13:51:12.693Z,4.17
2018-07-17T13:53:40.102Z,3.87
2018-07-17T13:56:07.603Z,3.60
2018-07-17T13:58:35.135Z,3.57
2018-07-17T14:01:02.584Z,3.50
2018-07-17T14:03:30.755Z,6.33
2018-07-17T14:05:58.514Z,4.33
2018-07-17T14:08:26.038Z,4.50
2018-07-17T14:10:53.771Z,4.83
2018-07-17T14:13:21.401Z,3.30
2018-07-17T14:15:48.910Z,4.67
2018-07-17T14:18:16.404Z,3.27
2018-07-17T14:20:43.951Z,3.47
2018-07-17T14:23:11.843Z,6.37
2018-07-17T14:25:39.258Z,3.57
2018-07-17T14:28:06.666Z,3.77
2018-07-17T14:30:33.983Z,5.03
2018-07-17T14:33:01.554Z,4.57
2018-07-17T14:35:30.027Z,4.43
2018-07-17T14:37:58.526Z,5.07
2018-07-17T14:40:26.187Z,5.50
2018-07-17T14:42:54.168Z,5.10
2018-07-17T14:45:21.527Z,7.03
2018-07-17T14:47:49.245Z,4.03
2018-07-17T14:50:16.868Z,5.10
2018-07-17T14:52:44.311Z,5.57
2018-07-17T14:55:11.818Z,4.40
2018-07-17T14:57:39.731Z,5.03
2018-07-17T15:00:08.753Z,5.43
2018-07-17T15:02:36.106Z,4.40
2018-07-17T15:05:03.918Z,3.57
2018-07-17T15:07:31.274Z,4.87
2018-07-17T15:09:59.300Z,6.10
2018-07-17T15:12:26.882Z,4.00
2018-07-17T15:14:54.322Z,5.37
2018-07-17T15:17:22.153Z,6.23
2018-07-17T15:19:49.527Z,4.10
2018-07-17T15:22:16.875Z,5.07
2018-07-17T15:24:44.327Z,5.87
2018-07-17T15:27:12.362Z,6.10
2018-07-17T15:29:39.949Z,5.90
2018-07-17T15:32:07.867Z,5.00
2018-07-17T15:34:35.144Z,6.20
2018-07-17T15:37:02.444Z,5.23
2018-07-17T15:39:29.980Z,5.83
2018-07-17T15:41:57.527Z,5.27
2018-07-17T15:44:24.928Z,6.90
2018-07-17T15:46:52.207Z,6.50
2018-07-17T15:49:19.636Z,4.30
2018-07-17T15:51:47.007Z,6.63
2018-07-17T15:54:14.489Z,6.20
2018-07-17T15:56:41.730Z,6.87
2018-07-17T15:59:09.033Z,5.80
2018-07-17T16:01:36.502Z,4.63
2018-07-17T16:04:03.893Z,5.90
2018-07-17T16:06:31.913Z,4.13
2018-07-17T16:08:59.430Z,7.00
2018-07-17T16:11:28.333Z,4.90
2018-07-17T16:13:55.949Z,4.87
2018-07-17T16:16:23.403Z,6.77
2018-07-17T16:18:51.518Z,6.80
2018-07-17T16:21:19.032Z,5.43
2018-07-17T16:23:46.379Z,4.07
2018-07-17T16:26:14.703Z,5.57
2018-07-17T16:28:42.034Z,9.10
2018-07-17T16:31:09.569Z,4.63
2018-07-17T16:33:37.032Z,5.07
2018-07-17T16:36:04.981Z,4.80
2018-07-17T16:38:32.348Z,7.20
2018-07-17T16:40:59.904Z,5.47
2018-07-17T16:43:27.433Z,6.03
2018-07-17T16:45:54.984Z,10.07
2018-07-17T16:48:22.347Z,4.17
2018-07-17T16:50:50.044Z,5.10
2018-07-17T16:53:17.371Z,6.07
2018-07-17T16:55:44.850Z,5.47
2018-07-17T16:58:12.273Z,5.90
2018-07-17T17:00:39.890Z,6.07
2018-07-17T17:03:07.595Z,5.00
2018-07-17T17:05:35.160Z,4.57
2018-07-17T17:08:03.380Z,5.40
2018-07-17T17:10:31.113Z,6.07
2018-07-17T17:12:58.634Z,10.37
2018-07-17T17:15:27.650Z,4.23
2018-07-17T17:17:55.971Z,4.63
2018-07-17T17:20:23.666Z,4.20
2018-07-17T17:22:51.199Z,6.20
2018-07-17T17:25:18.829Z,4.47
2018-07-17T17:27:46.545Z,4.30
2018-07-17T17:30:14.087Z,4.43
2018-07-17T17:32:41.481Z,6.50
2018-07-17T17:35:09.129Z,5.27
2018-07-17T17:37:37.291Z,4.77
2018-07-17T17:40:04.657Z,6.20
2018-07-17T17:42:32.805Z,3.70
2018-07-17T17:45:00.584Z,7.00
2018-07-17T17:47:27.984Z,4.03
2018-07-17T17:49:55.570Z,6.83
2018-07-17T17:52:23.467Z,5.30
2018-07-17T17:54:50.963Z,5.77
2018-07-17T17:57:18.628Z,6.17
2018-07-17T17:59:46.070Z,5.77
2018-07-17T18:02:13.455Z,3.10
2018-07-17T18:04:40.936Z,6.03
2018-07-17T18:07:08.585Z,4.23
2018-07-17T18:09:36.571Z,5.10
2018-07-17T18:12:04.991Z,4.80
2018-07-17T18:14:32.376Z,3.20
2018-07-17T18:16:59.909Z,3.30
2018-07-17T18:19:27.628Z,3.63
2018-07-17T18:21:55.476Z,3.97
2018-07-17T18:24:22.798Z,5.83
2018-07-17T18:26:50.371Z,7.93
2018-07-17T18:29:17.746Z,3.43
2018-07-17T18:31:45.982Z,5.40
2018-07-17T18:34:13.471Z,4.20
2018-07-17T18:36:40.901Z,5.13
2018-07-17T18:39:08.541Z,4.20
2018-07-17T18:41:35.948Z,3.57
2018-07-17T18:44:03.232Z,4.03
2018-07-17T18:46:30.604Z,4.57
2018-07-17T18:48:58.390Z,3.70
2018-07-17T18:51:25.801Z,5.20
2018-07-17T18:53:53.283Z,6.80
2018-07-17T18:56:21.394Z,4.97
2018-07-17T18:58:48.816Z,3.63
2018-07-17T19:01:17.050Z,5.63
2018-07-17T19:03:44.395Z,4.23
2018-07-17T19:06:11.870Z,5.97
2018-07-17T19:08:39.500Z,6.50
2018-07-17T19:11:06.836Z,5.93
2018-07-17T19:13:34.189Z,8.17
2018-07-17T19:16:02.207Z,6.90
2018-07-17T19:18:29.591Z,5.40
2018-07-17T19:20:57.158Z,6.50
2018-07-17T19:23:24.660Z,5.97
2018-07-17T19:25:52.256Z,12.13
2018-07-17T19:28:20.389Z,5.80
2018-07-17T19:30:48.573Z,7.47
2018-07-17T19:33:16.115Z,6.20
2018-07-17T19:35:43.605Z,5.53
2018-07-17T19:38:10.930Z,7.13
2018-07-17T19:40:39.180Z,4.60
2018-07-17T19:43:06.532Z,3.97
2018-07-17T19:45:33.957Z,4.13
2018-07-17T19:48:01.326Z,5.47
2018-07-17T19:50:28.724Z,6.00
2018-07-17T19:52:56.474Z,5.93
2018-07-17T19:55:24.847Z,6.23
2018-07-17T19:57:52.196Z,7.17
2018-07-17T20:00:19.660Z,4.27
2018-07-17T20:02:47.047Z,4.23
2018-07-17T20:05:14.359Z,4.33
2018-07-17T20:07:41.908Z,5.87
2018-07-17T20:10:09.223Z,4.77
2018-07-17T20:12:36.582Z,5.93
2018-07-17T20:15:04.151Z,5.40
2018-07-17T20:17:31.503Z,8.93
2018-07-17T20:19:59.209Z,5.80
2018-07-17T20:22:26.676Z,7.57
2018-07-17T20:24:54.071Z,3.57
2018-07-17T20:27:21.469Z,4.30
2018-07-17T20:29:48.808Z,4.63
2018-07-17T20:32:16.197Z,5.53
2018-07-17T20:34:43.576Z,5.33
2018-07-17T20:37:11.044Z,6.90
2018-07-17T20:39:38.549Z,6.70
2018-07-17T20:42:05.969Z,6.53
2018-07-17T20:44:33.325Z,5.47
2018-07-17T20:47:00.885Z,6.37
2018-07-17T20:49:28.261Z,7.43
2018-07-17T20:51:55.628Z,4.57
2018-07-17T20:54:23.116Z,4.97
2018-07-17T20:56:50.532Z,4.50
2018-07-17T20:59:17.877Z,5.67
2018-07-17T21:01:45.247Z,7.50
2018-07-17T21:04:12.623Z,6.83
2018-07-17T21:06:40.071Z,4.53
2018-07-17T21:09:08.845Z,5.00
2018-07-17T21:11:36.149Z,4.47
2018-07-17T21:14:03.476Z,8.17
2018-07-17T21:16:31.198Z,5.97
2018-07-17T21:18:58.546Z,6.93
2018-07-17T21:21:25.934Z,8.83
2018-07-17T21:23:53.314Z,5.10
2018-07-17T21:26:20.660Z,6.70
2018-07-17T21:28:48.147Z,8.13
2018-07-17T21:31:15.603Z,7.67
2018-07-17T21:33:43.596Z,7.17
2018-07-17T21:36:11.196Z,8.13
2018-07-17T21:38:39.117Z,6.27
2018-07-17T21:41:06.483Z,7.87
2018-07-17T21:43:33.830Z,7.70
2018-07-17T21:46:01.196Z,8.50
2018-07-17T21:48:28.937Z,8.17
2018-07-17T21:50:57.221Z,6.30
2018-07-17T21:53:24.501Z,7.50
2018-07-17T21:55:51.901Z,9.17
2018-07-17T21:58:19.295Z,7.07
2018-07-17T22:00:46.600Z,5.57
2018-07-17T22:03:13.965Z,10.00
2018-07-17T22:05:41.479Z,8.90
2018-07-17T22:08:09.032Z,9.43
2018-07-17T22:10:36.344Z,6.50
2018-07-17T22:13:03.850Z,7.00
2018-07-17T22:15:31.188Z,7.00
2018-07-17T22:17:58.439Z,10.00
2018-07-17T22:20:26.025Z,8.80
2018-07-17T22:22:53.330Z,10.00
2018-07-17T22:25:20.590Z,8.30
2018-07-17T22:27:47.920Z,7.70
2018-07-17T22:30:15.254Z,7.80
2018-07-17T22:32:42.710Z,8.93
2018-07-17T22:35:10.080Z,9.37
2018-07-17T22:37:37.440Z,9.27
2018-07-17T22:40:04.873Z,7.60
2018-07-17T22:42:32.160Z,9.63
2018-07-17T22:44:59.615Z,11.80
2018-07-17T22:47:26.901Z,9.00
2018-07-17T22:49:54.348Z,10.47
2018-07-17T22:52:21.603Z,9.53
2018-07-17T22:54:49.092Z,7.17
2018-07-17T22:57:16.415Z,6.30
2018-07-17T22:59:44.840Z,9.33
2018-07-17T23:02:12.196Z,11.60
2018-07-17T23:04:39.426Z,8.60
2018-07-17T23:07:06.728Z,7.93
2018-07-17T23:09:34.054Z,9.53
2018-07-17T23:12:01.381Z,12.63
2018-07-17T23:14:28.668Z,11.20
2018-07-17T23:16:55.989Z,9.43
2018-07-17T23:19:23.367Z,7.87
2018-07-17T23:21:50.697Z,6.63
2018-07-17T23:24:18.096Z,6.67
2018-07-17T23:26:45.345Z,9.70
2018-07-17T23:29:12.603Z,14.67
2018-07-17T23:31:39.940Z,7.57
2018-07-17T23:34:07.196Z,8.23
2018-07-17T23:36:34.595Z,10.30
2018-07-17T23:39:01.871Z,7.00
2018-07-17T23:41:29.213Z,7.80
2018-07-17T23:43:56.545Z,6.53
2018-07-17T23:46:23.886Z,6.43
2018-07-17T23:48:51.196Z,8.03
2018-07-17T23:51:18.546Z,9.00
2018-07-17T23:53:45.835Z,7.90
2018-07-17T23:56:13.326Z,7.47
2018-07-17T23:58:40.777Z,7.80
